Terminal Aerodrome Forecast
Issued by NWS

Home | Current Version | Previous Version | Text Only | Print | Product List | Glossary On
Versions: 1 2 3 4 5 6 7 8 9 10 11 12 13 14 15 16 17 18 19 20 21
016
FTUS43 KAPX 291125
TAFTVC
TAF
KTVC 291125Z 2912/3012 VRB03KT P6SM FEW016 SCT060 BKN100
     FM291300 23008KT P6SM OVC040
     FM291400 23009KT P6SM BKN030
     FM292300 26008KT P6SM BKN060
     FM301100 23004KT P6SM BKN030=

USA.gov is the U.S. government's official web portal to all federal, state and local government web resources and services.